Wallops Island, VA

11:02 AM EST on February 20, 2017 (GMT -0500)
KE5BM-13 | | Change Station

Elev 38 ft 37.92 °N, 75.48 °W | Updated 3 seconds ago

Clear
Clear
58.4 °F
Feels Like 58.4 °F
N
8.0
Wind Variable Wind from NNW
Gusts 16.0 mph

Today
High -- | Low -- °F
--% Chance of Precip.
Yesterday
High -- | Low -- °F
Precip. -- in
Pressure 30.21 in
Visibility 10.0 miles
Clouds Clear
Dew Point 37 °F
Humidity 44%
Rainfall 0.00 in
Snow Depth Not available.
6:45 AM 5:46 PM
Waning Crescent, 33% visible
METAR KWAL 201554Z AUTO 01009KT 10SM CLR 16/03 A3022 RMK AO2 SLP229 T01560028
Pressure 30.21 in
Visibility 10.0 miles
Clouds Clear
Dew Point 37 °F
Humidity 44%
Rainfall 0.00 in
Snow Depth Not available.
6:45 AM 5:46 PM
Waning Crescent, 33% visible
METAR KWAL 201554Z AUTO 01009KT 10SM CLR 16/03 A3022 RMK AO2 SLP229 T01560028

Get Your Daily Forecast Email!

Thanks for signing up!

Be on the lookout for a verification email in your inbox.

You'll start receiving the daily forecast at 8 AM.

×

10-Day Weather Forecast

Almanac

Astronomy

Feb. 20, 2017 Rise Set
Actual Time
Civil Twilight
Nautical Twilight
Astronomical Twilight
Moon
Length of Visible Light
Length of Day
Tomorrow will be .
, % of the Moon is Illuminated

Today's Extremes

State Highs State Lows

Community

WunderPhotos

Upload Photos

1,962,540 photos uploaded!

WunderBlog® & News

Nearby

Air Quality

  Air Quality AQ Index Pollutant
Not available.

Snow Depth

Station Depth Elevation

Earthquake Activity

City Distance Mag. Time & Date
Minimum magnitude displayed is 2.5.

Coastal Water Temperatures

Place Temperature

Stations

Nearby Weather Stations

Station Location Temp. Windchill Dew Point Humidity Wind Precip. Elev Updated Type
                   

Watches & Warnings

There are currently no watches in effect.